Time;durP1;ratioP1;P1;durP2;ratioP2;P2;SDS_P1;SDS_P2;PMS_P1;PMS_P2;Temp;Humidity;BMP_temperature;BMP_pressure;BME280_temperature;BME280_humidity;BME280_pressure;Samples;Min_cycle;Max_cycle;Signal;HPM_P1;HPM_P2
2022/10/15 00:01:15;;;;;;;38.25;19.48;;;;;;;10.92;100.00;100824.94;5053084;28;20059;-75
2022/10/15 00:03:43;;;;;;;33.03;18.80;;;;;;;10.91;100.00;100829.44;5052623;28;20051;-77
2022/10/15 00:06:14;;;;;;;35.13;18.38;;;;;;;10.89;100.00;100827.88;5052964;28;20462;-75
2022/10/15 00:08:40;;;;;;;35.83;19.30;;;;;;;10.85;100.00;100827.34;5052239;28;20033;-77
2022/10/15 00:11:09;;;;;;;36.05;19.58;;;;;;;10.83;100.00;100823.94;5052795;28;20061;-75
2022/10/15 00:13:35;;;;;;;34.80;19.40;;;;;;;10.79;100.00;100824.38;5052343;28;20053;-75
2022/10/15 00:16:01;;;;;;;38.20;19.92;;;;;;;10.76;100.00;100823.69;5052238;28;20461;-75
2022/10/15 00:18:27;;;;;;;36.85;20.42;;;;;;;10.77;100.00;100827.19;5051951;28;20477;-75
2022/10/15 00:20:52;;;;;;;41.15;19.58;;;;;;;10.79;100.00;100827.03;5051751;28;20111;-75
2022/10/15 00:23:18;;;;;;;38.13;19.35;;;;;;;10.85;100.00;100823.81;5052594;28;20390;-75
2022/10/15 00:25:43;;;;;;;36.63;19.50;;;;;;;10.90;100.00;100822.41;5052072;28;20051;-76
2022/10/15 00:28:08;;;;;;;36.33;19.42;;;;;;;10.96;100.00;100820.16;5052144;28;20025;-74
2022/10/15 00:30:34;;;;;;;33.03;18.13;;;;;;;11.00;100.00;100824.22;5052117;28;20071;-74
2022/10/15 00:32:59;;;;;;;35.03;18.20;;;;;;;11.00;100.00;100811.75;5051871;28;20060;-74
2022/10/15 00:35:24;;;;;;;34.38;18.15;;;;;;;11.02;100.00;100812.44;5052572;28;20104;-75
2022/10/15 00:37:50;;;;;;;28.42;17.30;;;;;;;11.06;100.00;100805.00;5051659;28;20044;-75
2022/10/15 00:40:15;;;;;;;36.17;17.23;;;;;;;11.09;100.00;100812.69;5050957;28;20136;-75
2022/10/15 00:42:41;;;;;;;33.92;17.27;;;;;;;11.08;100.00;100811.88;5051063;28;20044;-75
2022/10/15 00:45:11;;;;;;;30.52;17.90;;;;;;;11.08;100.00;100803.88;5051365;28;20513;-75
2022/10/15 00:47:40;;;;;;;33.93;18.17;;;;;;;11.11;100.00;100811.59;5051662;28;20029;-75
2022/10/15 00:50:09;;;;;;;33.30;18.20;;;;;;;11.14;100.00;100801.63;5051570;28;20131;-75
2022/10/15 00:52:43;;;;;;;32.95;17.88;;;;;;;11.18;100.00;100801.22;5051967;28;20017;-75
2022/10/15 00:55:16;;;;;;;30.58;18.08;;;;;;;11.20;100.00;100801.06;5051542;28;20102;-75
2022/10/15 00:57:43;;;;;;;31.45;18.52;;;;;;;11.19;100.00;100805.53;5051703;28;20024;-74
2022/10/15 01:00:13;;;;;;;33.67;18.08;;;;;;;11.20;100.00;100801.06;5051574;28;20039;-75
2022/10/15 01:02:39;;;;;;;27.73;17.17;;;;;;;11.19;100.00;100802.88;5051955;28;20063;-75
2022/10/15 01:05:05;;;;;;;27.98;16.80;;;;;;;11.17;100.00;100807.50;5051391;28;20064;-75
2022/10/15 01:07:30;;;;;;;34.20;19.52;;;;;;;11.13;100.00;100806.13;5051823;28;20428;-75
2022/10/15 01:09:56;;;;;;;30.10;17.95;;;;;;;11.11;100.00;100802.78;5051704;28;20041;-75
2022/10/15 01:12:28;;;;;;;40.22;18.70;;;;;;;11.10;100.00;100799.25;5051878;28;20087;-75
2022/10/15 01:15:11;;;;;;;38.58;19.13;;;;;;;11.13;100.00;100798.13;5051457;28;20045;-75
2022/10/15 01:17:45;;;;;;;34.70;18.98;;;;;;;11.16;100.00;100795.16;5052063;28;20033;-74
2022/10/15 01:20:25;;;;;;;33.55;19.05;;;;;;;11.19;100.00;100792.22;5051414;28;20099;-75
2022/10/15 01:23:32;;;;;;;37.70;19.17;;;;;;;11.20;100.00;100785.09;5052077;28;20120;-77
2022/10/15 01:25:58;;;;;;;38.40;19.10;;;;;;;11.21;100.00;100779.63;5050725;28;20048;-76
2022/10/15 01:28:33;;;;;;;34.70;19.05;;;;;;;11.22;100.00;100778.63;5052514;28;20033;-75
2022/10/15 01:31:10;;;;;;;34.95;19.98;;;;;;;11.23;100.00;100777.63;5055317;28;20071;-75
2022/10/15 01:33:48;;;;;;;35.28;18.95;;;;;;;11.23;100.00;100782.13;5055870;28;20029;-75
2022/10/15 01:36:38;;;;;;;41.75;21.30;;;;;;;11.19;100.00;100772.75;5055530;28;20226;-75
2022/10/15 01:39:12;;;;;;;38.35;20.83;;;;;;;11.17;100.00;100764.06;5055224;28;20028;-75
2022/10/15 01:41:49;;;;;;;41.85;21.10;;;;;;;11.13;100.00;100762.69;5056000;28;20048;-75
2022/10/15 01:44:21;;;;;;;38.08;21.73;;;;;;;11.08;100.00;100769.28;5053879;28;20488;-75
2022/10/15 01:46:52;;;;;;;38.78;20.85;;;;;;;11.02;100.00;100761.88;5055290;28;20063;-75
2022/10/15 01:49:21;;;;;;;35.83;21.02;;;;;;;10.90;100.00;100766.50;5054714;28;20033;-75
2022/10/15 01:51:49;;;;;;;37.80;21.70;;;;;;;10.82;100.00;100761.03;5055641;28;20028;-74
2022/10/15 01:54:18;;;;;;;47.75;23.35;;;;;;;10.72;100.00;100758.41;5054896;28;20025;-75
2022/10/15 01:56:50;;;;;;;46.35;23.55;;;;;;;10.68;100.00;100761.50;5055607;28;20043;-75
2022/10/15 01:59:20;;;;;;;;;;;;;;;10.62;100.00;100762.91;5055070;28;20074;-75
2022/10/15 02:01:45;;;;;;;44.83;24.30;;;;;;;10.57;100.00;100763.31;5054650;28;19913;-75
2022/10/15 02:04:23;;;;;;;57.17;26.48;;;;;;;10.51;100.00;100755.91;5054690;28;20170;-75
2022/10/15 02:06:57;;;;;;;59.75;28.70;;;;;;;10.53;100.00;100753.13;5054979;28;20075;-75
2022/10/15 02:09:31;;;;;;;52.33;26.00;;;;;;;10.53;100.00;100755.78;5054957;28;20473;-75
2022/10/15 02:12:26;;;;;;;61.88;28.40;;;;;;;10.51;100.00;100745.28;5055048;28;20037;-75
2022/10/15 02:14:57;;;;;;;61.08;28.80;;;;;;;10.48;100.00;100745.56;5055300;28;20049;-75
2022/10/15 02:17:58;;;;;;;65.53;29.35;;;;;;;10.41;100.00;100742.59;5054351;28;20028;-75
2022/10/15 02:20:36;;;;;;;58.70;27.42;;;;;;;10.33;100.00;100746.91;5035587;28;20041;-75
2022/10/15 02:23:10;;;;;;;61.55;27.73;;;;;;;10.35;100.00;100737.84;5054710;28;20046;-77
2022/10/15 02:25:38;;;;;;;56.75;27.38;;;;;;;10.39;100.00;100728.63;5054795;28;20065;-75
2022/10/15 02:28:05;;;;;;;57.08;27.75;;;;;;;10.39;100.00;100730.44;5054250;28;20124;-75
2022/10/15 02:30:32;;;;;;;57.45;28.13;;;;;;;10.39;100.00;100731.28;5054839;28;20057;-75
2022/10/15 02:32:58;;;;;;;57.00;27.23;;;;;;;10.31;100.00;100717.78;5054774;28;20523;-75
2022/10/15 02:35:25;;;;;;;62.90;28.20;;;;;;;10.31;100.00;100714.31;5052891;28;20029;-75
2022/10/15 02:37:53;;;;;;;71.93;31.63;;;;;;;10.31;100.00;100707.16;5054533;28;20112;-74
2022/10/15 02:40:27;;;;;;;62.38;28.52;;;;;;;10.28;100.00;100703.94;5053397;28;20033;-75
2022/10/15 02:42:53;;;;;;;68.35;30.80;;;;;;;10.23;100.00;100704.38;5055117;28;20056;-74
2022/10/15 02:45:20;;;;;;;80.63;32.15;;;;;;;10.30;100.00;100705.50;5053871;28;20061;-75
2022/10/15 02:47:45;;;;;;;61.15;28.33;;;;;;;10.30;100.00;100709.97;5054525;28;20061;-75
2022/10/15 02:50:10;;;;;;;66.70;29.55;;;;;;;10.29;100.00;100714.44;5053630;28;20462;-75
2022/10/15 02:52:36;;;;;;;65.53;30.83;;;;;;;10.34;100.00;100708.75;5054311;28;20520;-75
2022/10/15 02:55:01;;;;;;;74.63;31.67;;;;;;;10.39;100.00;100701.19;5054368;28;20044;-74
2022/10/15 02:57:26;;;;;;;76.05;31.98;;;;;;;10.43;100.00;100699.06;5053473;28;20043;-75
2022/10/15 02:59:52;;;;;;;73.72;31.23;;;;;;;10.44;100.00;100700.75;5053919;28;20120;-75
2022/10/15 03:02:17;;;;;;;73.18;31.45;;;;;;;10.42;100.00;100692.94;5053589;28;20060;-75
2022/10/15 03:04:42;;;;;;;66.22;31.30;;;;;;;10.44;100.00;100693.63;5053847;28;20028;-74
2022/10/15 03:07:08;;;;;;;75.90;30.98;;;;;;;10.48;100.00;100687.03;5053611;28;20033;-75
2022/10/15 03:09:33;;;;;;;71.03;31.23;;;;;;;10.50;100.00;100689.56;5054135;28;20493;-75
2022/10/15 03:11:58;;;;;;;68.18;31.52;;;;;;;10.48;100.00;100688.84;5054015;28;20033;-74
2022/10/15 03:14:24;;;;;;;79.63;32.60;;;;;;;10.46;100.00;100688.97;5052944;28;20447;-75
2022/10/15 03:16:49;;;;;;;66.78;30.58;;;;;;;10.45;100.00;100697.09;5054070;28;20040;-74
2022/10/15 03:19:14;;;;;;;70.68;30.67;;;;;;;10.40;100.00;100692.22;5053175;28;20040;-74
2022/10/15 03:21:40;;;;;;;73.82;31.10;;;;;;;10.39;100.00;100693.22;5053843;28;20156;-74
2022/10/15 03:24:06;;;;;;;69.53;29.80;;;;;;;10.33;100.00;100683.06;5053822;28;20130;-74
2022/10/15 03:26:31;;;;;;;81.88;33.67;;;;;;;10.32;100.00;100687.56;5053459;28;20072;-74
2022/10/15 03:28:56;;;;;;;72.35;30.85;;;;;;;10.30;100.00;100684.22;5053699;28;20098;-74
2022/10/15 03:31:22;;;;;;;76.88;31.75;;;;;;;10.29;100.00;100679.88;5051849;28;20479;-74
2022/10/15 03:33:47;;;;;;;71.20;30.10;;;;;;;10.24;100.00;100682.97;5053639;28;20033;-74
2022/10/15 03:36:12;;;;;;;78.10;32.20;;;;;;;10.23;100.00;100683.09;5053057;28;20132;-76
2022/10/15 03:38:38;;;;;;;71.78;30.77;;;;;;;10.20;100.00;100683.38;5053375;28;20041;-75
2022/10/15 03:41:03;;;;;;;78.57;31.90;;;;;;;10.15;100.00;100685.59;5053528;28;20029;-75
2022/10/15 03:43:28;;;;;;;73.40;31.70;;;;;;;10.09;100.00;100686.16;5052793;28;20057;-75
2022/10/15 03:45:54;;;;;;;75.30;31.83;;;;;;;10.02;100.00;100692.06;5053303;28;20458;-75
2022/10/15 03:48:19;;;;;;;73.75;30.90;;;;;;;9.96;100.00;100687.28;5052822;28;20461;-75
2022/10/15 03:50:45;;;;;;;73.55;30.75;;;;;;;9.88;100.00;100684.47;5053061;28;20408;-75
2022/10/15 03:53:11;;;;;;;79.88;31.70;;;;;;;9.82;100.00;100693.00;5051827;28;20458;-75
2022/10/15 03:55:36;;;;;;;81.55;34.38;;;;;;;9.85;100.00;100701.56;5052372;28;20104;-75
2022/10/15 03:58:02;;;;;;;95.70;36.78;;;;;;;9.94;100.00;100702.56;5053167;28;20029;-74
2022/10/15 04:00:28;;;;;;;92.93;36.47;;;;;;;10.09;100.00;100704.78;5052554;28;20116;-75
2022/10/15 04:02:53;;;;;;;106.35;37.65;;;;;;;10.21;100.00;100709.84;5052936;28;20069;-75
2022/10/15 04:05:18;;;;;;;89.97;35.83;;;;;;;10.29;100.00;100706.47;5052834;28;20059;-75
2022/10/15 04:07:44;;;;;;;104.97;37.72;;;;;;;10.40;100.00;100703.72;5051989;28;20040;-75
2022/10/15 04:10:09;;;;;;;93.70;37.78;;;;;;;10.46;100.00;100712.91;5052894;28;20112;-75
2022/10/15 04:12:34;;;;;;;95.63;36.70;;;;;;;10.50;100.00;100708.16;5052058;28;20662;-75
2022/10/15 04:15:00;;;;;;;87.28;35.58;;;;;;;10.54;100.00;100709.56;5052498;28;20139;-74
2022/10/15 04:17:25;;;;;;;97.80;36.60;;;;;;;10.56;100.00;100708.44;5052258;28;20032;-75
2022/10/15 04:19:50;;;;;;;92.75;36.15;;;;;;;10.57;100.00;100704.78;5052779;28;20033;-75
2022/10/15 04:22:16;;;;;;;84.80;34.55;;;;;;;10.60;100.00;100701.03;5052680;28;20036;-77
2022/10/15 04:24:41;;;;;;;78.95;34.22;;;;;;;10.63;100.00;100698.06;5052218;28;20393;-75
2022/10/15 04:27:07;;;;;;;88.47;34.70;;;;;;;10.70;100.00;100698.31;5052639;28;20052;-74
2022/10/15 04:29:32;;;;;;;88.55;34.90;;;;;;;10.71;100.00;100692.84;5052135;28;20361;-75
2022/10/15 04:31:58;;;;;;;76.20;32.47;;;;;;;10.72;100.00;100685.75;5051251;28;20025;-74
2022/10/15 04:34:23;;;;;;;81.93;33.95;;;;;;;10.75;100.00;100688.09;5051941;28;20025;-75
2022/10/15 04:36:49;;;;;;;74.55;32.13;;;;;;;10.74;100.00;100683.75;5052642;28;20033;-75
2022/10/15 04:39:14;;;;;;;75.05;33.05;;;;;;;10.69;100.00;100676.22;5052507;28;20040;-75
2022/10/15 04:41:40;;;;;;;75.07;32.47;;;;;;;10.66;100.00;100680.97;5050460;28;20175;-75
2022/10/15 04:44:05;;;;;;;83.38;33.67;;;;;;;10.63;100.00;100683.91;5052428;28;20040;-75
2022/10/15 04:46:30;;;;;;;68.25;31.25;;;;;;;10.59;100.00;100686.03;5051005;28;20036;-75
2022/10/15 04:48:57;;;;;;;76.70;31.27;;;;;;;10.58;100.00;100684.34;5050768;28;20029;-75
2022/10/15 04:51:24;;;;;;;75.82;33.10;;;;;;;10.59;100.00;100686.03;5051540;28;20040;-76
2022/10/15 04:53:50;;;;;;;79.60;33.17;;;;;;;10.64;100.00;100682.94;5052060;28;20476;-75
2022/10/15 04:56:18;;;;;;;80.95;33.58;;;;;;;10.68;100.00;100681.69;5051996;28;20037;-75
2022/10/15 04:58:45;;;;;;;80.65;33.15;;;;;;;10.76;100.00;100682.63;5051035;28;20594;-75
2022/10/15 05:01:14;;;;;;;78.18;34.13;;;;;;;10.85;100.00;100677.41;5052007;28;20040;-75
2022/10/15 05:03:41;;;;;;;74.55;33.42;;;;;;;10.89;100.00;100682.31;5051145;28;20025;-75
2022/10/15 05:06:10;;;;;;;67.63;31.13;;;;;;;10.91;100.00;100672.38;5052026;28;20029;-75
2022/10/15 05:08:35;;;;;;;71.60;31.15;;;;;;;10.94;100.00;100676.53;5051439;28;20033;-75
2022/10/15 05:11:05;;;;;;;75.75;31.92;;;;;;;10.94;100.00;100674.75;5051668;28;20041;-75
2022/10/15 05:13:31;;;;;;;72.28;31.40;;;;;;;10.98;100.00;100679.78;5051092;28;20069;-75
2022/10/15 05:16:06;;;;;;;74.07;31.17;;;;;;;10.99;100.00;100681.44;5050587;28;20405;-75
2022/10/15 05:18:32;;;;;;;69.32;30.75;;;;;;;11.00;100.00;100675.13;5051451;28;20029;-75
2022/10/15 05:21:00;;;;;;;64.72;30.10;;;;;;;10.99;100.00;100671.63;5051815;28;20454;-75
2022/10/15 05:23:25;;;;;;;69.45;30.05;;;;;;;10.99;100.00;100676.09;5051525;28;20037;-77
2022/10/15 05:25:51;;;;;;;64.03;30.50;;;;;;;11.00;100.00;100668.00;5051585;28;20037;-75
2022/10/15 05:28:16;;;;;;;69.93;31.17;;;;;;;11.00;100.00;100665.34;5051795;28;20035;-74
2022/10/15 05:30:41;;;;;;;72.07;30.85;;;;;;;11.00;100.00;100673.31;5051372;28;20115;-74
2022/10/15 05:33:07;;;;;;;76.28;31.45;;;;;;;11.02;100.00;100665.19;5051540;28;20039;-75
2022/10/15 05:35:32;;;;;;;70.45;31.10;;;;;;;11.02;100.00;100659.88;5050451;28;20459;-75
2022/10/15 05:37:58;;;;;;;77.93;32.30;;;;;;;11.00;100.00;100664.47;5047365;28;20057;-75
2022/10/15 05:40:23;;;;;;;77.63;32.60;;;;;;;10.99;100.00;100657.47;5040485;28;20040;-75
2022/10/15 05:42:52;;;;;;;75.78;32.30;;;;;;;10.97;100.00;100659.44;5041006;28;20030;-75
2022/10/15 05:45:19;;;;;;;77.00;31.83;;;;;;;10.97;100.00;100660.28;5039819;28;20033;-74
2022/10/15 05:47:44;;;;;;;78.22;31.65;;;;;;;10.97;100.00;100656.78;5039987;28;20035;-74
2022/10/15 05:50:10;;;;;;;86.35;31.92;;;;;;;10.97;100.00;100660.28;5041440;28;20755;-74
2022/10/15 05:52:35;;;;;;;80.13;32.22;;;;;;;10.97;100.00;100662.13;5038584;28;20053;-74
2022/10/15 05:55:00;;;;;;;80.50;31.67;;;;;;;10.97;100.00;100659.44;5041073;28;20037;-74
2022/10/15 05:57:26;;;;;;;85.20;32.70;;;;;;;10.98;100.00;100661.13;5036796;28;20116;-74
2022/10/15 05:59:51;;;;;;;73.90;30.52;;;;;;;10.98;100.00;100669.94;5038990;28;20454;-73
2022/10/15 06:02:17;;;;;;;72.65;30.52;;;;;;;11.02;100.00;100662.53;5040824;28;20036;-74
2022/10/15 06:04:42;;;;;;;78.20;30.95;;;;;;;11.03;100.00;100653.53;5037442;28;20057;-74
2022/10/15 06:07:07;;;;;;;75.35;31.02;;;;;;;11.05;100.00;100659.56;5038525;28;20422;-74
2022/10/15 06:09:33;;;;;;;73.82;30.15;;;;;;;11.07;100.00;100657.59;5031320;28;20064;-74
2022/10/15 06:11:58;;;;;;;73.38;29.90;;;;;;;11.07;100.00;100655.75;5044973;28;20370;-73
2022/10/15 06:14:24;;;;;;;63.00;28.52;;;;;;;11.10;100.00;100649.31;5049819;28;20134;-72
2022/10/15 06:16:49;;;;;;;64.82;27.70;;;;;;;11.11;100.00;100645.66;5040788;28;20037;-74
2022/10/15 06:19:15;;;;;;;68.82;28.70;;;;;;;11.11;100.00;100643.00;5044876;28;20151;-74
2022/10/15 06:21:41;;;;;;;60.10;26.90;;;;;;;11.09;100.00;100643.16;5042710;28;20034;-74
2022/10/15 06:24:06;;;;;;;68.80;28.10;;;;;;;11.09;100.00;100647.63;5050052;28;20033;-74
2022/10/15 06:26:31;;;;;;;62.05;28.38;;;;;;;11.07;100.00;100652.25;5052897;28;20043;-77
2022/10/15 06:28:58;;;;;;;61.58;26.85;;;;;;;11.03;100.00;100649.06;5053553;28;20064;-75
2022/10/15 06:31:23;;;;;;;58.45;27.90;;;;;;;10.98;100.00;100655.81;5053492;28;20044;-73
2022/10/15 06:33:49;;;;;;;64.68;27.98;;;;;;;10.98;100.00;100642.50;5052697;28;20373;-74
2022/10/15 06:36:14;;;;;;;66.15;29.15;;;;;;;10.99;100.00;100649.47;5053120;28;20055;-74
2022/10/15 06:38:42;;;;;;;61.10;28.52;;;;;;;11.00;100.00;100648.50;5052807;28;20029;-74
2022/10/15 06:41:08;;;;;;;60.15;27.70;;;;;;;11.03;100.00;100653.53;5053150;28;20074;-73
2022/10/15 06:43:34;;;;;;;55.97;26.67;;;;;;;11.07;100.00;100655.75;5043357;28;20037;-77
2022/10/15 06:46:00;;;;;;;58.58;26.15;;;;;;;11.12;100.00;100657.97;5049886;28;20539;-75
2022/10/15 06:48:26;;;;;;;55.70;26.33;;;;;;;11.15;100.00;100655.03;5054976;28;20068;-75
2022/10/15 06:50:51;;;;;;;50.97;25.35;;;;;;;11.21;100.00;100648.25;5052010;28;20040;-74
2022/10/15 06:53:16;;;;;;;48.15;24.80;;;;;;;11.24;100.00;100648.81;5050935;28;20112;-74
2022/10/15 06:55:42;;;;;;;44.88;22.98;;;;;;;11.29;100.00;100643.06;5050303;28;20056;-73
2022/10/15 06:58:07;;;;;;;46.40;23.38;;;;;;;11.32;100.00;100655.25;5051538;28;20397;-72
2022/10/15 07:00:33;;;;;;;45.55;23.08;;;;;;;11.36;100.00;100656.59;5051938;28;20029;-76
2022/10/15 07:03:05;;;;;;;50.28;22.67;;;;;;;11.38;100.00;100651.97;5049109;28;20480;-76
2022/10/15 07:05:32;;;;;;;43.38;22.27;;;;;;;11.37;100.00;100652.97;5051718;28;20033;-76
2022/10/15 07:07:58;;;;;;;46.25;23.50;;;;;;;11.37;100.00;100658.28;5050120;28;20033;-75
2022/10/15 07:10:25;;;;;;;47.58;23.27;;;;;;;11.39;100.00;100654.50;5051268;28;20024;-75
2022/10/15 07:12:51;;;;;;;49.33;23.58;;;;;;;11.43;100.00;100647.03;5050762;28;20037;-74
2022/10/15 07:15:17;;;;;;;51.05;23.15;;;;;;;11.45;100.00;100647.75;5051194;28;20512;-76
2022/10/15 07:17:49;;;;;;;49.10;23.50;;;;;;;11.49;100.00;100642.94;5050904;28;20036;-75
2022/10/15 07:20:15;;;;;;;46.35;23.20;;;;;;;11.51;100.00;100647.13;5050799;28;20021;-77
2022/10/15 07:22:41;;;;;;;49.78;23.42;;;;;;;11.54;100.00;100643.31;5051139;28;20029;-76
2022/10/15 07:25:08;;;;;;;51.63;24.25;;;;;;;11.57;100.00;100638.53;5051671;28;20048;-79
2022/10/15 07:27:34;;;;;;;51.40;24.25;;;;;;;11.62;100.00;100644.25;5046464;28;20060;-76
2022/10/15 07:29:59;;;;;;;55.80;25.10;;;;;;;11.67;100.00;100637.63;5045330;28;20064;-73
2022/10/15 07:32:24;;;;;;;50.42;24.15;;;;;;;11.71;100.00;100631.00;5051741;28;20355;-75
2022/10/15 07:34:49;;;;;;;56.88;25.63;;;;;;;11.68;100.00;100624.16;5053344;28;20029;-76
2022/10/15 07:37:15;;;;;;;57.78;26.83;;;;;;;11.72;100.00;100630.00;5053628;28;20040;-76
2022/10/15 07:39:40;;;;;;;50.03;24.08;;;;;;;11.77;100.00;100627.75;5053074;28;20048;-77
2022/10/15 07:42:05;;;;;;;56.72;25.30;;;;;;;11.86;100.00;100642.00;5054022;28;20029;-76
2022/10/15 07:44:31;;;;;;;49.72;23.27;;;;;;;11.87;100.00;100647.16;5053885;28;20040;-77
2022/10/15 07:46:56;;;;;;;46.85;22.95;;;;;;;11.91;100.00;100643.22;5053365;28;20094;-77
2022/10/15 07:49:21;;;;;;;52.13;23.70;;;;;;;11.91;100.00;100631.69;5053751;28;20036;-76
2022/10/15 07:51:47;;;;;;;46.47;23.48;;;;;;;11.95;100.00;100623.25;5052037;28;20032;-77
2022/10/15 07:54:12;;;;;;;36.83;21.23;;;;;;;11.95;100.00;100623.25;5053431;28;20032;-77
2022/10/15 07:56:37;;;;;;;35.92;20.85;;;;;;;11.96;100.00;100622.28;5053490;28;20056;-76
2022/10/15 07:59:03;;;;;;;37.05;19.52;;;;;;;12.05;100.00;100622.38;5053067;28;20527;-76
2022/10/15 08:01:28;;;;;;;32.42;17.75;;;;;;;12.12;100.00;100624.25;5053230;28;20056;-75
2022/10/15 08:03:53;;;;;;;30.75;17.52;;;;;;;12.26;100.00;100625.53;5052729;28;20040;-75
2022/10/15 08:06:19;;;;;;;30.33;16.95;;;;;;;12.32;100.00;100622.22;5053437;28;20032;-76
2022/10/15 08:08:44;;;;;;;29.98;17.33;;;;;;;12.41;100.00;100620.47;5052599;28;20029;-76
2022/10/15 08:11:15;;;;;;;26.05;16.50;;;;;;;12.49;100.00;100614.34;5053243;28;20033;-77
2022/10/15 08:13:41;;;;;;;27.23;16.80;;;;;;;12.69;100.00;100612.28;5052787;28;20055;-76
2022/10/15 08:16:11;;;;;;;28.35;17.35;;;;;;;12.84;100.00;100609.88;5052813;28;20124;-75
2022/10/15 08:18:37;;;;;;;26.70;16.95;;;;;;;12.90;100.00;100601.22;5053017;28;20435;-76
2022/10/15 08:21:05;;;;;;;27.85;17.52;;;;;;;12.96;100.00;100603.25;5052744;28;20036;-76
2022/10/15 08:23:31;;;;;;;32.15;19.02;;;;;;;12.94;100.00;100599.88;5052946;28;20049;-76
2022/10/15 08:25:58;;;;;;;33.10;19.48;;;;;;;12.97;100.00;100593.38;5052467;28;20033;-76
2022/10/15 08:28:23;;;;;;;32.72;19.73;;;;;;;12.93;100.00;100592.03;5052663;28;20033;-75
2022/10/15 08:30:49;;;;;;;33.33;20.23;;;;;;;12.90;100.00;100590.53;5051383;28;20454;-76
2022/10/15 08:33:14;;;;;;;39.80;21.80;;;;;;;12.94;100.00;100589.19;5052665;28;20032;-75
2022/10/15 08:35:42;;;;;;;41.17;22.58;;;;;;;13.00;100.00;100593.91;5052923;28;20056;-76
2022/10/15 08:38:08;;;;;;;36.45;21.50;;;;;;;13.09;100.00;100584.06;5051717;28;20041;-76
2022/10/15 08:40:33;;;;;;;45.08;22.52;;;;;;;13.11;100.00;100583.94;5052603;28;20424;-76
2022/10/15 08:42:58;;;;;;;37.92;21.80;;;;;;;13.20;100.00;100580.31;5052463;28;20032;-76
2022/10/15 08:45:33;;;;;;;38.55;22.48;;;;;;;13.30;100.00;100588.16;5051664;28;20075;-76
2022/10/15 08:48:06;;;;;;;40.97;23.48;;;;;;;13.29;100.00;100584.66;5052481;28;20029;-77
2022/10/15 08:50:34;;;;;;;39.55;21.33;;;;;;;13.32;100.00;100587.00;5035069;28;20025;-75
2022/10/15 08:52:59;;;;;;;40.58;21.38;;;;;;;13.31;100.00;100592.50;5051975;28;20386;-76
2022/10/15 08:55:41;;;;;;;38.78;22.45;;;;;;;13.19;100.00;100578.63;5052725;28;20025;-77
2022/10/15 08:58:20;;;;;;;34.35;20.60;;;;;;;13.08;100.00;100570.88;5052246;28;20107;-77
2022/10/15 09:00:53;;;;;;;38.42;23.10;;;;;;;12.98;100.00;100579.06;5052367;28;20024;-78
2022/10/15 09:03:30;;;;;;;34.60;20.95;;;;;;;12.93;100.00;100578.69;5052686;28;20029;-76
2022/10/15 09:06:00;;;;;;;38.90;21.00;;;;;;;12.82;100.00;100588.66;5052109;28;20090;-74
2022/10/15 09:08:52;;;;;;;36.23;20.23;;;;;;;12.70;100.00;100589.94;5052510;28;20037;-76
2022/10/15 09:11:22;;;;;;;31.17;19.13;;;;;;;12.60;100.00;100578.53;5052945;28;20106;-76
2022/10/15 09:13:48;;;;;;;29.25;18.33;;;;;;;12.56;100.00;100575.34;5052305;28;20357;-75
2022/10/15 09:16:20;;;;;;;29.13;18.38;;;;;;;12.55;100.00;100573.66;5051574;28;20035;-75
2022/10/15 09:18:48;;;;;;;31.13;18.73;;;;;;;12.56;100.00;100578.03;5052028;28;20033;-76
2022/10/15 09:21:15;;;;;;;28.42;17.88;;;;;;;12.56;100.00;100588.69;5051886;28;20029;-74
2022/10/15 09:23:43;;;;;;;30.23;17.65;;;;;;;12.57;100.00;100573.50;5052243;28;20036;-74
2022/10/15 09:26:11;;;;;;;27.98;17.88;;;;;;;12.62;100.00;100579.22;5051780;28;20033;-73
2022/10/15 09:28:49;;;;;;;30.20;17.10;;;;;;;12.68;100.00;100571.41;5052382;28;20064;-74
2022/10/15 09:31:20;;;;;;;30.40;17.23;;;;;;;12.76;100.00;100573.28;5051789;28;20033;-74
2022/10/15 09:33:51;;;;;;;29.35;17.00;;;;;;;12.82;100.00;100577.13;5051899;28;20473;-73
2022/10/15 09:36:56;;;;;;;26.73;16.23;;;;;;;12.88;100.00;100574.69;5050947;28;20025;-74
2022/10/15 09:39:51;;;;;;;21.58;15.15;;;;;;;12.93;100.00;100571.53;5010046;28;20038;-73
2022/10/15 09:42:33;;;;;;;24.65;15.93;;;;;;;12.91;100.00;100564.66;5051013;28;20041;-75
2022/10/15 09:45:02;;;;;;;25.70;16.33;;;;;;;12.87;100.00;100561.50;5051922;28;20049;-76
2022/10/15 09:47:34;;;;;;;28.65;17.42;;;;;;;12.91;100.00;100565.50;5052214;28;20029;-75
2022/10/15 09:50:02;;;;;;;26.60;16.33;;;;;;;12.95;100.00;100560.69;5053209;28;20358;-76
2022/10/15 09:52:52;;;;;;;26.55;16.83;;;;;;;12.95;100.00;100558.00;5056372;28;20040;-74
2022/10/15 09:55:41;;;;;;;24.52;16.42;;;;;;;13.01;100.00;100568.03;5056456;28;20051;-74
2022/10/15 09:58:14;;;;;;;21.00;14.73;;;;;;;13.13;100.00;100553.38;5055941;28;20029;-75
2022/10/15 10:01:01;;;;;;;20.95;13.82;;;;;;;13.19;100.00;100549.22;5056546;28;20021;-73
2022/10/15 10:03:32;;;;;;;21.15;14.15;;;;;;;13.22;100.00;100557.75;5056696;28;20032;-75
2022/10/15 10:06:09;;;;;;;21.65;13.82;;;;;;;13.25;100.00;100558.44;5059669;28;20028;-76
2022/10/15 10:08:38;;;;;;;19.88;12.88;;;;;;;13.26;100.00;100557.44;5058227;28;20055;-73
2022/10/15 10:11:08;;;;;;;19.20;12.65;;;;;;;13.27;100.00;100564.44;5056047;28;20029;-74
2022/10/15 10:13:45;;;;;;;15.82;10.70;;;;;;;13.27;100.00;100559.09;5055237;28;20052;-75
2022/10/15 10:16:12;;;;;;;18.63;11.23;;;;;;;13.32;100.00;100568.28;5046138;28;20082;-74
2022/10/15 10:18:38;;;;;;;18.40;10.77;;;;;;;13.29;100.00;100557.13;5052139;28;20112;-74
2022/10/15 10:21:06;;;;;;;14.02;9.57;;;;;;;13.25;100.00;100561.94;5051254;28;20108;-74
2022/10/15 10:23:34;;;;;;;12.45;8.52;;;;;;;13.17;100.00;100564.59;5049549;28;20049;-72
2022/10/15 10:26:09;;;;;;;12.88;8.90;;;;;;;13.12;100.00;100559.75;5052279;28;20025;-77
2022/10/15 10:28:43;;;;;;;12.98;8.70;;;;;;;13.09;100.00;100560.03;5052005;28;20358;-74
2022/10/15 10:31:09;;;;;;;13.40;8.65;;;;;;;13.07;100.00;100566.56;5051850;28;20099;-74
2022/10/15 10:33:47;;;;;;;12.55;8.02;;;;;;;13.00;100.00;100564.53;5052068;28;20377;-75
2022/10/15 10:36:39;;;;;;;9.77;7.32;;;;;;;13.01;100.00;100560.84;5053243;28;20029;-74
2022/10/15 10:39:04;;;;;;;;;;;;;;;13.04;100.00;100555.19;5049200;28;20045;-72
2022/10/15 10:41:55;;;;;;;11.63;6.68;;;;;;;13.10;100.00;100559.06;5052590;28;20420;-73
2022/10/15 10:44:27;;;;;;;8.77;6.30;;;;;;;13.14;100.00;100560.41;5051713;28;20068;-72
2022/10/15 10:47:14;;;;;;;9.82;6.55;;;;;;;13.15;100.00;100556.75;5049837;28;20383;-73
2022/10/15 10:49:48;;;;;;;10.23;6.80;;;;;;;13.17;100.00;100556.59;5051657;28;20021;-71
2022/10/15 10:52:22;;;;;;;8.35;5.68;;;;;;;13.14;100.00;100552.41;5050314;28;20028;-74
2022/10/15 10:55:17;;;;;;;8.02;5.82;;;;;;;13.16;100.00;100554.91;5052812;28;20048;-74
2022/10/15 10:57:54;;;;;;;6.53;4.88;;;;;;;13.15;100.00;100546.06;5052487;28;20029;-75
2022/10/15 11:00:40;;;;;;;7.32;5.22;;;;;;;13.09;100.00;100548.53;5051125;28;20445;-75
2022/10/15 11:03:12;;;;;;;7.72;4.82;;;;;;;13.08;100.00;100545.03;5051818;28;20118;-75
2022/10/15 11:05:39;;;;;;;6.70;4.95;;;;;;;13.07;100.00;100545.19;5052612;28;20432;-74
2022/10/15 11:08:33;;;;;;;7.45;5.22;;;;;;;13.03;100.00;100544.66;5052458;28;20444;-77
2022/10/15 11:11:01;;;;;;;7.40;5.32;;;;;;;13.05;100.00;100540.03;5051534;28;20033;-73